createdAt,value
2019-05-02T00:01:28.568Z,5.20
2019-05-02T00:04:03.207Z,4.72
2019-05-02T00:06:42.914Z,5.58
2019-05-02T00:09:14.619Z,4.28
2019-05-02T00:11:58.520Z,4.72
2019-05-02T00:14:25.712Z,4.33
2019-05-02T00:17:00.146Z,3.50
2019-05-02T00:19:34.644Z,3.10
2019-05-02T00:22:12.200Z,3.95
2019-05-02T00:24:45.805Z,4.40
2019-05-02T00:27:20.934Z,4.62
2019-05-02T00:29:58.646Z,3.95
2019-05-02T00:32:31.286Z,3.70
2019-05-02T00:35:05.890Z,3.45
2019-05-02T00:37:40.100Z,3.62
2019-05-02T00:40:14.815Z,3.60
2019-05-02T00:42:53.375Z,3.10
2019-05-02T00:45:25.973Z,2.77
2019-05-02T00:48:11.432Z,2.80
2019-05-02T00:50:50.930Z,2.55
2019-05-02T00:53:24.685Z,2.47
2019-05-02T00:55:59.010Z,3.08
2019-05-02T00:58:33.829Z,3.92
2019-05-02T01:01:35.169Z,4.00
2019-05-02T01:04:27.677Z,3.45
2019-05-02T01:07:02.611Z,4.10
2019-05-02T01:09:37.382Z,4.15
2019-05-02T01:12:25.062Z,4.50
2019-05-02T01:14:48.827Z,4.40
2019-05-02T01:17:26.175Z,4.95
2019-05-02T01:19:59.514Z,4.58
2019-05-02T01:22:35.311Z,4.10
2019-05-02T01:25:15.062Z,4.28
2019-05-02T01:28:03.065Z,2.65
2019-05-02T01:30:52.445Z,1.90
2019-05-02T01:33:36.914Z,1.50
2019-05-02T01:36:26.138Z,1.65
2019-05-02T01:39:02.981Z,1.50
2019-05-02T01:41:36.484Z,1.55
2019-05-02T01:44:10.951Z,1.77
2019-05-02T01:46:44.997Z,1.65
2019-05-02T01:49:27.094Z,1.55
2019-05-02T01:52:03.479Z,1.50
2019-05-02T01:54:40.750Z,1.43
2019-05-02T01:57:30.353Z,1.40
2019-05-02T02:00:08.877Z,1.60
2019-05-02T02:02:40.363Z,1.75
2019-05-02T02:05:14.794Z,1.57
2019-05-02T02:07:50.735Z,1.45
2019-05-02T02:10:25.424Z,1.60
2019-05-02T02:13:04.924Z,1.27
2019-05-02T02:15:35.792Z,1.70
2019-05-02T02:18:10.523Z,1.82
2019-05-02T02:21:01.322Z,1.70
2019-05-02T02:24:07.064Z,1.82
2019-05-02T02:26:43.691Z,1.72
2019-05-02T02:29:17.706Z,1.67
2019-05-02T02:31:52.215Z,1.60
2019-05-02T02:34:32.155Z,1.72
2019-05-02T02:37:13.206Z,1.80
2019-05-02T02:39:40.675Z,1.52
2019-05-02T02:42:31.175Z,1.87
2019-05-02T02:45:06.307Z,1.55
2019-05-02T02:47:40.650Z,1.70
2019-05-02T02:50:15.215Z,1.62
2019-05-02T02:52:50.014Z,1.42
2019-05-02T02:55:25.166Z,1.75
2019-05-02T02:58:04.938Z,1.45
2019-05-02T03:00:35.473Z,1.40
2019-05-02T03:03:10.424Z,1.50
2019-05-02T03:05:45.191Z,1.62
2019-05-02T03:08:20.279Z,2.58
2019-05-02T03:10:54.464Z,6.92
2019-05-02T03:13:51.182Z,5.67
2019-05-02T03:16:18.558Z,3.02
2019-05-02T03:18:53.647Z,2.45
2019-05-02T03:21:28.741Z,1.42
2019-05-02T03:24:05.766Z,1.62
2019-05-02T03:26:42.350Z,1.80
2019-05-02T03:29:17.006Z,1.43
2019-05-02T03:32:11.798Z,1.47
2019-05-02T03:34:44.913Z,1.32
2019-05-02T03:37:10.803Z,1.40
2019-05-02T03:39:41.104Z,1.60
2019-05-02T03:42:16.094Z,1.47
2019-05-02T03:44:56.194Z,1.50
2019-05-02T03:47:26.693Z,1.55
2019-05-02T03:50:01.228Z,1.47
2019-05-02T03:52:36.655Z,1.85
2019-05-02T03:55:13.034Z,1.70
2019-05-02T03:57:47.682Z,1.80
2019-05-02T04:00:24.259Z,1.82
2019-05-02T04:03:00.520Z,1.60
2019-05-02T04:05:40.306Z,2.00
2019-05-02T04:08:20.932Z,1.70
2019-05-02T04:11:21.613Z,2.12
2019-05-02T04:14:14.765Z,2.00
2019-05-02T04:16:41.162Z,2.00
2019-05-02T04:19:16.544Z,2.15
2019-05-02T04:21:54.840Z,2.25
2019-05-02T04:24:28.042Z,2.52
2019-05-02T04:27:02.634Z,2.10
2019-05-02T04:29:37.199Z,2.20
2019-05-02T04:32:14.316Z,2.25
2019-05-02T04:34:54.367Z,2.37
2019-05-02T04:37:24.323Z,1.98
2019-05-02T04:40:02.986Z,2.15
2019-05-02T04:42:35.004Z,1.77
2019-05-02T04:45:21.863Z,1.95
2019-05-02T04:47:54.870Z,2.60
2019-05-02T04:50:25.403Z,2.50
2019-05-02T04:52:59.684Z,2.43
2019-05-02T04:55:34.822Z,2.67
2019-05-02T04:58:24.169Z,2.80
2019-05-02T05:00:53.520Z,2.50
2019-05-02T05:03:23.371Z,3.20
2019-05-02T05:05:59.405Z,2.30
2019-05-02T05:08:33.546Z,2.40
2019-05-02T05:11:08.112Z,2.27
2019-05-02T05:13:42.842Z,2.33
2019-05-02T05:16:18.600Z,2.40
2019-05-02T05:18:55.532Z,2.02
2019-05-02T05:21:30.031Z,2.40
2019-05-02T05:24:24.863Z,2.52
2019-05-02T05:27:00.105Z,2.20
2019-05-02T05:29:34.967Z,2.52
2019-05-02T05:32:10.221Z,2.47
2019-05-02T05:34:47.699Z,2.50
2019-05-02T05:37:22.217Z,2.40
2019-05-02T05:39:57.992Z,2.40
2019-05-02T05:42:33.368Z,2.08
2019-05-02T05:45:09.733Z,2.00
2019-05-02T05:47:44.425Z,2.17
2019-05-02T05:50:18.801Z,2.12
2019-05-02T05:52:53.002Z,2.00
2019-05-02T05:55:28.460Z,2.20
2019-05-02T05:58:12.302Z,1.92
2019-05-02T06:00:39.820Z,2.37
2019-05-02T06:03:14.908Z,1.82
2019-05-02T06:05:49.384Z,1.80
2019-05-02T06:08:24.041Z,2.02
2019-05-02T06:10:58.809Z,1.80
2019-05-02T06:13:33.495Z,1.85
2019-05-02T06:16:10.518Z,1.90
2019-05-02T06:18:45.269Z,1.80
2019-05-02T06:21:21.424Z,1.62
2019-05-02T06:23:55.669Z,1.90
2019-05-02T06:26:30.041Z,1.80
2019-05-02T06:29:04.878Z,1.87
2019-05-02T06:31:43.179Z,1.65
2019-05-02T06:34:15.436Z,1.67
2019-05-02T06:36:49.910Z,1.70
2019-05-02T06:39:27.108Z,1.27
2019-05-02T06:42:00.542Z,1.52
2019-05-02T06:44:35.165Z,1.30
2019-05-02T06:47:10.555Z,1.30
2019-05-02T06:49:45.236Z,1.35
2019-05-02T06:52:19.706Z,1.22
2019-05-02T06:54:54.146Z,1.85
2019-05-02T06:57:29.432Z,1.50
2019-05-02T07:00:10.068Z,1.60
2019-05-02T07:02:45.550Z,1.52
2019-05-02T07:05:27.161Z,1.40
2019-05-02T07:08:12.106Z,1.32
2019-05-02T07:10:50.013Z,1.30
2019-05-02T07:13:36.182Z,1.27
2019-05-02T07:16:49.498Z,1.33
2019-05-02T07:19:30.803Z,1.27
2019-05-02T07:22:04.946Z,1.52
2019-05-02T07:24:39.511Z,1.57
2019-05-02T07:27:14.316Z,1.80
2019-05-02T07:29:52.114Z,2.12
2019-05-02T07:32:26.768Z,1.90
2019-05-02T07:35:04.727Z,1.70
2019-05-02T07:37:39.368Z,1.90
2019-05-02T07:40:16.869Z,1.70
2019-05-02T07:42:50.482Z,1.72
2019-05-02T07:45:24.712Z,2.15
2019-05-02T07:48:01.465Z,2.12
2019-05-02T07:50:41.289Z,2.10
2019-05-02T07:53:14.315Z,2.22
2019-05-02T07:55:49.341Z,2.50
2019-05-02T07:58:23.564Z,2.50
2019-05-02T08:01:00.229Z,2.52
2019-05-02T08:03:34.874Z,2.58
2019-05-02T08:06:09.368Z,2.83
2019-05-02T08:08:44.280Z,2.58
2019-05-02T08:11:18.790Z,2.90
2019-05-02T08:13:55.509Z,2.40
2019-05-02T08:16:30.727Z,2.40
2019-05-02T08:19:05.380Z,2.50
2019-05-02T08:21:42.528Z,2.50
2019-05-02T08:24:16.967Z,2.30
2019-05-02T08:27:18.741Z,2.17
2019-05-02T08:29:53.724Z,2.65
2019-05-02T08:32:28.565Z,3.40
2019-05-02T08:35:05.931Z,3.42
2019-05-02T08:37:43.868Z,2.90
2019-05-02T08:40:18.716Z,2.47
2019-05-02T08:42:53.478Z,2.37
2019-05-02T08:45:33.115Z,2.75
2019-05-02T08:48:06.437Z,1.95
2019-05-02T08:50:43.989Z,2.15
2019-05-02T08:53:19.651Z,2.10
2019-05-02T08:55:54.305Z,1.95
2019-05-02T08:58:29.048Z,2.20
2019-05-02T09:01:03.712Z,1.92
2019-05-02T09:03:54.747Z,1.67
2019-05-02T09:06:17.063Z,1.72
2019-05-02T09:08:51.332Z,1.60
2019-05-02T09:11:26.455Z,1.77
2019-05-02T09:14:02.074Z,1.42
2019-05-02T09:16:36.615Z,1.55
2019-05-02T09:19:13.479Z,1.40
2019-05-02T09:21:52.144Z,1.30
2019-05-02T09:24:46.420Z,1.40
2019-05-02T09:27:28.377Z,1.20
2019-05-02T09:30:04.039Z,1.40
2019-05-02T09:32:38.530Z,1.25
2019-05-02T09:35:13.158Z,1.00
2019-05-02T09:37:47.667Z,1.10
2019-05-02T09:40:22.344Z,1.20
2019-05-02T09:43:01.773Z,1.22
2019-05-02T09:45:37.298Z,2.47
2019-05-02T09:48:09.432Z,1.30
2019-05-02T09:50:44.065Z,0.90
2019-05-02T09:53:20.499Z,1.10
2019-05-02T09:55:57.782Z,0.82
2019-05-02T09:58:32.048Z,1.07
2019-05-02T10:01:15.126Z,0.98
2019-05-02T10:03:51.849Z,0.88
2019-05-02T10:06:27.510Z,1.20
2019-05-02T10:09:02.752Z,1.00
2019-05-02T10:11:38.515Z,1.00
2019-05-02T10:14:13.133Z,1.20
2019-05-02T10:16:47.536Z,1.30
2019-05-02T10:19:25.742Z,0.93
2019-05-02T10:21:58.085Z,1.15
2019-05-02T10:24:32.584Z,1.40
2019-05-02T10:27:08.596Z,1.12
2019-05-02T10:30:15.846Z,1.02
2019-05-02T10:32:52.830Z,0.98
2019-05-02T10:35:36.657Z,1.00
2019-05-02T10:38:04.831Z,1.23
2019-05-02T10:40:39.703Z,1.27
2019-05-02T10:43:15.674Z,0.82
2019-05-02T10:45:56.500Z,1.17
2019-05-02T10:48:29.927Z,1.77
2019-05-02T10:51:25.635Z,1.20
2019-05-02T10:53:57.995Z,1.02
2019-05-02T10:56:32.709Z,1.27
2019-05-02T10:59:07.677Z,1.30
2019-05-02T11:01:58.695Z,1.30
2019-05-02T11:04:34.391Z,1.30
2019-05-02T11:07:08.829Z,1.10
2019-05-02T11:09:44.645Z,1.10
2019-05-02T11:12:40.728Z,1.10
2019-05-02T11:15:19.050Z,1.17
2019-05-02T11:17:53.662Z,1.37
2019-05-02T11:20:28.035Z,1.35
2019-05-02T11:23:02.714Z,1.75
2019-05-02T11:25:37.067Z,1.40
2019-05-02T11:28:12.420Z,0.90
2019-05-02T11:30:47.332Z,1.10
2019-05-02T11:33:22.943Z,1.10
2019-05-02T11:35:57.759Z,0.93
2019-05-02T11:38:32.476Z,0.90
2019-05-02T11:41:07.247Z,1.10
2019-05-02T11:43:44.846Z,1.17
2019-05-02T11:46:17.924Z,0.70
2019-05-02T11:48:56.246Z,1.20
2019-05-02T11:51:28.331Z,1.02
2019-05-02T11:54:05.224Z,1.15
2019-05-02T11:56:41.159Z,1.15
2019-05-02T11:59:15.007Z,1.50
2019-05-02T12:02:00.149Z,1.75
2019-05-02T12:04:34.947Z,1.95
2019-05-02T12:07:09.607Z,1.50
2019-05-02T12:09:51.017Z,1.75
2019-05-02T12:12:22.659Z,1.70
2019-05-02T12:14:57.109Z,2.22
2019-05-02T12:17:32.639Z,2.27
2019-05-02T12:20:08.407Z,2.00
2019-05-02T12:22:42.860Z,1.80
2019-05-02T12:25:17.612Z,1.92
2019-05-02T12:27:52.662Z,1.75
2019-05-02T12:30:28.983Z,1.62
2019-05-02T12:33:03.037Z,1.80
2019-05-02T12:35:37.687Z,1.95
2019-05-02T12:38:12.405Z,1.50
2019-05-02T12:40:47.118Z,1.50
2019-05-02T12:43:22.908Z,1.90
2019-05-02T12:45:57.702Z,1.70
2019-05-02T12:48:32.789Z,1.40
2019-05-02T12:51:07.357Z,1.50
2019-05-02T12:53:41.870Z,1.40
2019-05-02T12:56:16.011Z,1.55
2019-05-02T12:58:52.728Z,1.52
2019-05-02T13:01:26.673Z,1.82
2019-05-02T13:04:07.605Z,1.67
2019-05-02T13:06:42.619Z,2.20
2019-05-02T13:09:17.182Z,2.02
2019-05-02T13:12:04.044Z,2.02
2019-05-02T13:14:38.761Z,1.98
2019-05-02T13:17:13.343Z,2.00
2019-05-02T13:19:55.686Z,2.27
2019-05-02T13:23:01.558Z,1.95
2019-05-02T13:25:37.007Z,1.80
2019-05-02T13:28:12.305Z,1.60
2019-05-02T13:31:05.163Z,1.70
2019-05-02T13:34:01.829Z,1.65
2019-05-02T13:36:57.587Z,1.40
2019-05-02T13:39:56.773Z,1.40
2019-05-02T13:42:30.951Z,1.50
2019-05-02T13:45:41.841Z,1.50
2019-05-02T13:48:21.840Z,1.40
2019-05-02T13:50:56.585Z,1.45
2019-05-02T13:53:32.127Z,1.57
2019-05-02T13:56:23.467Z,1.40
2019-05-02T13:58:59.075Z,1.57
2019-05-02T14:01:33.806Z,1.72
2019-05-02T14:04:10.228Z,1.72
2019-05-02T14:06:44.243Z,2.20
2019-05-02T14:09:52.721Z,1.92
2019-05-02T14:12:55.080Z,1.90
2019-05-02T14:15:52.622Z,1.80
2019-05-02T14:18:28.859Z,1.72
2019-05-02T14:21:02.756Z,1.72
2019-05-02T14:23:39.127Z,1.77
2019-05-02T14:26:27.569Z,1.60
2019-05-02T14:28:53.262Z,1.45
2019-05-02T14:31:28.122Z,1.42
2019-05-02T14:34:33.265Z,1.87
2019-05-02T14:37:08.095Z,1.37
2019-05-02T14:39:42.841Z,1.70
2019-05-02T14:42:22.129Z,1.60
2019-05-02T14:45:05.388Z,1.65
2019-05-02T14:47:29.695Z,1.60
2019-05-02T14:50:05.187Z,1.55
2019-05-02T14:52:42.195Z,1.60
2019-05-02T14:55:16.986Z,1.50
2019-05-02T14:57:52.596Z,1.65
2019-05-02T15:00:31.598Z,1.77
2019-05-02T15:03:05.537Z,1.53
2019-05-02T15:05:44.701Z,1.75
2019-05-02T15:08:22.948Z,1.60
2019-05-02T15:10:57.380Z,2.35
2019-05-02T15:13:39.711Z,2.10
2019-05-02T15:16:10.533Z,2.20
2019-05-02T15:18:47.462Z,2.10
2019-05-02T15:21:22.801Z,2.67
2019-05-02T15:23:57.962Z,2.27
2019-05-02T15:26:33.324Z,2.40
2019-05-02T15:29:12.069Z,2.70
2019-05-02T15:31:53.563Z,2.25
2019-05-02T15:34:46.302Z,2.50
2019-05-02T15:37:17.012Z,2.33
2019-05-02T15:42:25.530Z,2.65
2019-05-02T15:45:01.951Z,2.20
2019-05-02T15:47:37.139Z,2.40
2019-05-02T15:50:14.778Z,2.20
2019-05-02T15:52:57.265Z,2.30
2019-05-02T15:55:32.423Z,2.42
2019-05-02T15:58:05.989Z,2.30
2019-05-02T16:00:43.069Z,2.15
2019-05-02T16:03:19.843Z,1.90
2019-05-02T16:05:53.929Z,1.85
2019-05-02T16:08:49.071Z,2.12
2019-05-02T16:11:24.428Z,2.22
2019-05-02T16:13:59.236Z,2.35
2019-05-02T16:16:36.596Z,2.60
2019-05-02T16:19:14.727Z,2.65
2019-05-02T16:21:52.650Z,2.80
2019-05-02T16:24:26.921Z,2.95
2019-05-02T16:27:01.598Z,2.60
2019-05-02T16:29:36.211Z,2.65
2019-05-02T16:32:35.745Z,3.15
2019-05-02T16:35:15.279Z,2.47
2019-05-02T16:37:51.083Z,2.30
2019-05-02T16:40:30.011Z,2.50
2019-05-02T16:42:58.729Z,3.15
2019-05-02T16:45:33.269Z,2.80
2019-05-02T16:48:07.662Z,2.85
2019-05-02T16:50:44.769Z,2.90
2019-05-02T16:53:22.636Z,2.80
2019-05-02T16:55:58.512Z,2.40
2019-05-02T16:58:31.920Z,2.90
2019-05-02T17:01:07.420Z,2.55
2019-05-02T17:03:42.400Z,2.30
2019-05-02T17:06:22.392Z,1.40
2019-05-02T17:09:02.349Z,1.30
2019-05-02T17:11:41.887Z,1.40
2019-05-02T17:14:15.815Z,1.80
2019-05-02T17:16:52.341Z,1.87
2019-05-02T17:19:26.320Z,1.70
2019-05-02T17:22:02.619Z,2.10
2019-05-02T17:24:37.414Z,1.80
2019-05-02T17:27:12.995Z,1.60
2019-05-02T17:29:47.556Z,1.40
2019-05-02T17:32:22.369Z,1.22
2019-05-02T17:34:56.732Z,1.30
2019-05-02T17:37:32.548Z,1.17
2019-05-02T17:40:07.626Z,1.20
2019-05-02T17:42:44.318Z,1.50
2019-05-02T17:45:20.384Z,1.50
2019-05-02T17:47:55.052Z,1.37
2019-05-02T17:50:38.084Z,1.15
2019-05-02T17:53:12.327Z,1.00
2019-05-02T17:55:46.765Z,1.15
2019-05-02T17:58:21.225Z,0.95
2019-05-02T18:01:00.034Z,1.00
2019-05-02T18:03:35.276Z,1.60
2019-05-02T18:06:12.584Z,1.40
2019-05-02T18:08:46.358Z,1.20
2019-05-02T18:11:22.328Z,1.10
2019-05-02T18:13:56.975Z,1.07
2019-05-02T18:16:32.612Z,1.35
2019-05-02T18:19:07.013Z,1.12
2019-05-02T18:21:41.963Z,1.00
2019-05-02T18:24:16.699Z,1.10
2019-05-02T18:26:51.702Z,1.05
2019-05-02T18:29:26.641Z,1.05
2019-05-02T18:32:03.777Z,0.90
2019-05-02T18:34:38.486Z,1.12
2019-05-02T18:37:12.742Z,1.17
2019-05-02T18:39:53.250Z,1.07
2019-05-02T18:42:25.460Z,1.15
2019-05-02T18:44:58.768Z,1.45
2019-05-02T18:47:33.591Z,1.15
2019-05-02T18:50:09.373Z,1.40
2019-05-02T18:52:48.140Z,1.27
2019-05-02T18:55:23.227Z,1.20
2019-05-02T18:57:57.057Z,1.60
2019-05-02T19:00:36.142Z,1.32
2019-05-02T19:03:12.188Z,1.40
2019-05-02T19:05:43.068Z,1.17
2019-05-02T19:08:28.267Z,1.30
2019-05-02T19:11:05.405Z,1.20
2019-05-02T19:13:30.716Z,1.17
2019-05-02T19:16:04.977Z,1.60
2019-05-02T19:18:39.612Z,1.40
2019-05-02T19:21:13.929Z,1.30
2019-05-02T19:23:48.594Z,1.20
2019-05-02T19:26:23.201Z,1.40
2019-05-02T19:29:08.438Z,1.27
2019-05-02T19:31:46.225Z,1.10
2019-05-02T19:34:22.764Z,1.20
2019-05-02T19:36:57.968Z,1.40
2019-05-02T19:39:32.220Z,1.10
2019-05-02T19:42:06.766Z,1.30
2019-05-02T19:44:42.076Z,1.35
2019-05-02T19:47:17.703Z,1.07
2019-05-02T19:49:54.265Z,1.05
2019-05-02T19:52:37.192Z,1.20
2019-05-02T19:55:04.302Z,1.00
2019-05-02T19:57:38.431Z,1.02
2019-05-02T20:00:12.629Z,1.07
2019-05-02T20:02:47.141Z,1.20
2019-05-02T20:05:25.535Z,1.20
2019-05-02T20:07:59.522Z,1.47
2019-05-02T20:10:33.925Z,1.60
2019-05-02T20:13:08.194Z,1.70
2019-05-02T20:15:46.606Z,1.85
2019-05-02T20:18:21.319Z,1.57
2019-05-02T20:21:11.737Z,1.50
2019-05-02T20:23:44.360Z,1.27
2019-05-02T20:26:18.885Z,1.30
2019-05-02T20:28:53.126Z,1.32
2019-05-02T20:31:27.352Z,1.00
2019-05-02T20:34:02.570Z,1.20
2019-05-02T20:36:37.273Z,1.30
2019-05-02T20:39:12.374Z,1.17
2019-05-02T20:41:48.075Z,1.10
2019-05-02T20:44:22.778Z,1.00
2019-05-02T20:46:57.159Z,0.90
2019-05-02T20:49:32.094Z,1.10
2019-05-02T20:52:06.542Z,1.10
2019-05-02T20:54:42.671Z,1.27
2019-05-02T20:57:17.997Z,1.12
2019-05-02T20:59:52.799Z,1.22
2019-05-02T21:02:26.986Z,1.00
2019-05-02T21:05:02.727Z,1.10
2019-05-02T21:07:53.111Z,1.20
2019-05-02T21:10:34.677Z,1.10
2019-05-02T21:13:09.337Z,1.10
2019-05-02T21:15:43.831Z,1.07
2019-05-02T21:18:18.201Z,1.22
2019-05-02T21:20:52.752Z,1.27
2019-05-02T21:23:35.530Z,1.20
2019-05-02T21:26:04.536Z,1.30
2019-05-02T21:28:38.891Z,1.35
2019-05-02T21:31:14.206Z,1.40
2019-05-02T21:33:48.719Z,1.07
2019-05-02T21:36:23.326Z,1.30
2019-05-02T21:38:57.393Z,1.30
2019-05-02T21:41:33.001Z,1.40
2019-05-02T21:44:07.713Z,1.35
2019-05-02T21:46:42.351Z,1.35
2019-05-02T21:49:18.739Z,1.50
2019-05-02T21:52:11.754Z,1.42
2019-05-02T21:55:12.254Z,1.50
2019-05-02T21:57:45.884Z,1.50
2019-05-02T22:00:35.663Z,1.67
2019-05-02T22:03:12.493Z,1.60
2019-05-02T22:05:46.310Z,1.47
2019-05-02T22:08:21.666Z,1.90
2019-05-02T22:10:56.476Z,1.82
2019-05-02T22:13:31.547Z,1.90
2019-05-02T22:16:05.981Z,2.15
2019-05-02T22:18:42.612Z,2.42
2019-05-02T22:21:16.796Z,2.60
2019-05-02T22:23:52.049Z,2.60
2019-05-02T22:26:27.780Z,2.40
2019-05-02T22:29:02.351Z,2.17
2019-05-02T22:31:37.143Z,2.02
2019-05-02T22:34:12.819Z,2.17
2019-05-02T22:36:47.779Z,1.98
2019-05-02T22:39:38.934Z,2.30
2019-05-02T22:42:13.168Z,2.02
2019-05-02T22:44:47.800Z,1.90
2019-05-02T22:47:22.725Z,2.00
2019-05-02T22:49:58.196Z,2.20
2019-05-02T22:52:32.666Z,1.65
2019-05-02T22:55:07.102Z,1.83
2019-05-02T22:57:42.080Z,1.85
2019-05-02T23:00:27.186Z,2.05
2019-05-02T23:03:01.836Z,2.08
2019-05-02T23:05:38.868Z,2.17
2019-05-02T23:08:13.342Z,2.00
2019-05-02T23:10:47.975Z,1.82
2019-05-02T23:13:24.562Z,1.70
2019-05-02T23:15:58.888Z,1.80
2019-05-02T23:18:33.501Z,1.70
2019-05-02T23:21:07.832Z,1.55
2019-05-02T23:23:43.393Z,1.67
2019-05-02T23:26:46.285Z,1.57
2019-05-02T23:29:22.548Z,1.95
2019-05-02T23:31:56.761Z,2.30
2019-05-02T23:34:32.391Z,2.42
2019-05-02T23:37:06.765Z,2.37
2019-05-02T23:39:41.769Z,2.77
2019-05-02T23:42:16.411Z,3.67
2019-05-02T23:45:11.941Z,2.85
2019-05-02T23:47:45.790Z,3.60
2019-05-02T23:50:20.114Z,3.05
2019-05-02T23:52:54.470Z,3.83
2019-05-02T23:55:28.824Z,3.37
2019-05-02T23:58:03.084Z,3.08
